Big Bear Station Historical Data
Daily Summary for May 9, 2019 Units:  English    Metric   Both
Next Day »
Daily Weekly Monthly Yearly Custom
  High: Low: Average:
Temperature: 66.4 °F 39.2 °F 51 °F
Dew Point: 42.1 °F 31.9 °F 37.2 °F
Humidity: 86% 33% 63%
Wind Speed: 10.9mph 0mph 2.3mph
Wind Gust: -999mph - -
Wind- - WNW
Pressure: 23.40 in 23.25 in -
Precipitation: 0 in    
Historical Graphs
 
 
Tabular Data for May 9, 2019
Time Temperature Dew Point Pressure Wind Wind Speed Wind Gust Humidity Rainfall Rate (Hourly)
00:10 43.2 °F 32.6 °F 23.40 in Calm   -999 mph 66% 0.00 in
00:25 42.8 °F 32.2 °F 23.40 in Calm   -999 mph 66% 0.00 in
00:40 42.3 °F 32.1 °F 23.39 in Calm   -999 mph 67% 0.00 in
00:56 42.1 °F 31.9 °F 23.39 in Calm   -999 mph 67% 0.00 in
01:11 41.9 °F 33.2 °F 23.39 in Calm   -999 mph 71% 0.00 in
01:26 41.5 °F 32.8 °F 23.39 in Calm   -999 mph 71% 0.00 in
01:41 41.4 °F 32.7 °F 23.38 in Calm   -999 mph 71% 0.00 in
01:56 41 °F 32.3 °F 23.38 in Calm   -999 mph 71% 0.00 in
02:12 40.8 °F 32.5 °F 23.38 in Calm   -999 mph 72% 0.00 in
02:27 40.8 °F 32.8 °F 23.37 in Calm   -999 mph 73% 0.00 in
02:42 40.6 °F 33 °F 23.37 in Calm   -999 mph 74% 0.00 in
02:57 40.3 °F 33 °F 23.37 in Calm   -999 mph 75% 0.00 in
03:12 40.1 °F 33.8 °F 23.37 in Calm   -999 mph 78% 0.00 in
03:28 39.9 °F 32.6 °F 23.37 in Calm   -999 mph 75% 0.00 in
03:43 39.6 °F 32.3 °F 23.36 in Calm   -999 mph 75% 0.00 in
03:58 39.4 °F 32.8 °F 23.36 in Calm   -999 mph 77% 0.00 in
04:13 39.6 °F 33.3 °F 23.36 in Calm   -999 mph 78% 0.00 in
04:29 39.4 °F 34.7 °F 23.36 in Calm   -999 mph 83% 0.00 in
04:44 39.6 °F 35.2 °F 23.35 in Calm   -999 mph 84% 0.00 in
04:59 39.4 °F 35.3 °F 23.35 in Calm   -999 mph 85% 0.00 in
05:14 39.2 °F 35.1 °F 23.35 in Calm   -999 mph 85% 0.00 in
05:29 39.2 °F 35.4 °F 23.35 in Calm   -999 mph 86% 0.00 in
05:45 39.4 °F 35.6 °F 23.35 in Calm   -999 mph 86% 0.00 in
06:00 39.6 °F 35.8 °F 23.35 in Calm   -999 mph 86% 0.00 in
06:15 39.6 °F 35.5 °F 23.35 in Calm   -999 mph 85% 0.00 in
06:30 39.6 °F 35.8 °F 23.35 in Calm   -999 mph 86% 0.00 in
06:45 39.9 °F 35.8 °F 23.35 in Calm   -999 mph 85% 0.00 in
07:01 40.5 °F 36 °F 23.35 in Calm   -999 mph 84% 0.00 in
07:16 41.4 °F 36.9 °F 23.35 in Calm   -999 mph 84% 0.00 in
07:31 41.9 °F 37.4 °F 23.35 in Calm   -999 mph 84% 0.00 in
07:46 43 °F 38.2 °F 23.35 in Calm   -999 mph 83% 0.00 in
08:01 44.6 °F 38.5 °F 23.35 in Calm   -999 mph 79% 0.00 in
08:17 46 °F 39.5 °F 23.34 in Calm   -999 mph 78% 0.00 in
08:32 47.5 °F 39.6 °F 23.34 in Calm   -999 mph 74% 0.00 in
08:47 50.7 °F 39.8 °F 23.34 in Calm   -999 mph 66% 0.00 in
09:02 53.4 °F 38.5 °F 23.34 in Calm   -999 mph 57% 0.00 in
09:18 57.4 °F 33.9 °F 23.34 in SSW 1.1 mph -999 mph 41% 0.00 in
09:33 59.2 °F 34.9 °F 23.33 in Calm   -999 mph 40% 0.00 in
09:48 61.2 °F 36 °F 23.33 in WNW 3.2 mph -999 mph 39% 0.00 in
10:03 60.8 °F 35 °F 23.33 in Calm   -999 mph 38% 0.00 in
10:18 61.7 °F 35.2 °F 23.33 in WSW 2.2 mph -999 mph 37% 0.00 in
10:34 61.2 °F 34 °F 23.33 in NW 5.3 mph -999 mph 36% 0.00 in
10:49 61.3 °F 35.5 °F 23.33 in ESE 2.2 mph -999 mph 38% 0.00 in
11:04 62.4 °F 34.4 °F 23.33 in South 2.2 mph -999 mph 35% 0.00 in
11:20 62.6 °F 34.6 °F 23.33 in SSE 4.7 mph -999 mph 35% 0.00 in
11:35 63.3 °F 34.4 °F 23.33 in NW 10.9 mph -999 mph 34% 0.00 in
11:50 65.3 °F 35.5 °F 23.33 in NW 5.3 mph -999 mph 33% 0.00 in
12:05 62.8 °F 34 °F 23.32 in North 7.8 mph -999 mph 34% 0.00 in
12:21 61.3 °F 34.1 °F 23.32 in WSW 5.3 mph -999 mph 36% 0.00 in
12:36 64 °F 35.8 °F 23.32 in South 2.7 mph -999 mph 35% 0.00 in
12:51 61 °F 41.2 °F 23.32 in North 3.2 mph -999 mph 48% 0.00 in
13:07 63.9 °F 37.1 °F 23.32 in North 5.8 mph -999 mph 37% 0.00 in
13:22 61 °F 35.2 °F 23.31 in WNW 6.3 mph -999 mph 38% 0.00 in
13:37 63.5 °F 40 °F 23.31 in WNW 4.2 mph -999 mph 42% 0.00 in
13:53 64.2 °F 38.1 °F 23.31 in NNW 4.2 mph -999 mph 38% 0.00 in
14:08 66.2 °F 39.2 °F 23.30 in NNW 6.8 mph -999 mph 37% 0.00 in
14:24 66.4 °F 38.6 °F 23.30 in NNW 6.3 mph -999 mph 36% 0.00 in
14:39 64.4 °F 37.6 °F 23.30 in WNW 7.3 mph -999 mph 37% 0.00 in
14:54 65.7 °F 38 °F 23.29 in NW 6.3 mph -999 mph 36% 0.00 in
15:10 64.8 °F 37.9 °F 23.29 in North 6.8 mph -999 mph 37% 0.00 in
15:25 64 °F 39.2 °F 23.28 in NW 5.8 mph -999 mph 40% 0.00 in
15:40 64.6 °F 39.7 °F 23.28 in NNW 5.8 mph -999 mph 40% 0.00 in
15:55 63 °F 40.1 °F 23.27 in NW 4.2 mph -999 mph 43% 0.00 in
16:11 63.3 °F 40.4 °F 23.27 in North 7.3 mph -999 mph 43% 0.00 in
16:26 62.6 °F 40.4 °F 23.26 in NW 5.3 mph -999 mph 44% 0.00 in
16:42 63.3 °F 41.6 °F 23.26 in West 6.3 mph -999 mph 45% 0.00 in
16:58 64.8 °F 41.2 °F 23.26 in NW 6.8 mph -999 mph 42% 0.00 in
17:28 62.6 °F 41.5 °F 23.25 in NW 6.8 mph -999 mph 46% 0.00 in
17:43 60.4 °F 40.1 °F 23.25 in NW 4.2 mph -999 mph 47% 0.00 in
17:59 58.6 °F 39 °F 23.26 in WNW 4.2 mph -999 mph 48% 0.00 in
18:14 57 °F 39 °F 23.25 in NNW 5.3 mph -999 mph 51% 0.00 in
18:29 56.7 °F 39.3 °F 23.25 in WNW 1.7 mph -999 mph 52% 0.00 in
18:44 53.8 °F 38.9 °F 23.26 in WNW 5.3 mph -999 mph 57% 0.00 in
19:00 53.6 °F 39.6 °F 23.25 in Calm   -999 mph 59% 0.00 in
19:15 50.9 °F 40.3 °F 23.25 in WNW 3.7 mph -999 mph 67% 0.00 in
19:31 49.3 °F 41.4 °F 23.26 in NNW 4.7 mph -999 mph 74% 0.00 in
19:46 48.4 °F 41.9 °F 23.26 in NW 4.7 mph -999 mph 78% 0.00 in
20:01 48 °F 42.1 °F 23.27 in NNW 3.2 mph -999 mph 80% 0.00 in
20:16 47.8 °F 41.6 °F 23.27 in NNW 3.7 mph -999 mph 79% 0.00 in
20:31 47.7 °F 41.5 °F 23.28 in North 2.2 mph -999 mph 79% 0.00 in
20:47 47.5 °F 41.3 °F 23.28 in Calm   -999 mph 79% 0.00 in
21:02 47.3 °F 41.4 °F 23.28 in West 3.7 mph -999 mph 80% 0.00 in
21:17 46.8 °F 41 °F 23.28 in WNW 4.2 mph -999 mph 80% 0.00 in
21:33 46.8 °F 41 °F 23.28 in NNW 1.7 mph -999 mph 80% 0.00 in
21:48 46.2 °F 40.7 °F 23.28 in Calm   -999 mph 81% 0.00 in
22:03 46 °F 40.8 °F 23.29 in Calm   -999 mph 82% 0.00 in
22:18 45.7 °F 40.5 °F 23.29 in West 1.7 mph -999 mph 82% 0.00 in
22:33 45.5 °F 40.3 °F 23.29 in Calm   -999 mph 82% 0.00 in
22:49 45.3 °F 40.1 °F 23.29 in Calm   -999 mph 82% 0.00 in
23:04 45.3 °F 40.1 °F 23.29 in Calm   -999 mph 82% 0.00 in
23:19 44.8 °F 39.6 °F 23.29 in Calm   -999 mph 82% 0.00 in
23:34 43.9 °F 39.1 °F 23.29 in Calm   -999 mph 83% 0.00 in
23:49 43.9 °F 39.4 °F 23.29 in Calm   -999 mph 84% 0.00 in
Big Bear CA Weather